Time;durP1;ratioP1;P1;durP2;ratioP2;P2;SDS_P1;SDS_P2;PMS_P1;PMS_P2;Temp;Humidity;BMP_temperature;BMP_pressure;BME280_temperature;BME280_humidity;BME280_pressure;Samples;Min_cycle;Max_cycle;Signal;HPM_P1;HPM_P2
2023/04/09 00:01:38;;;;;;;14.80;5.40;;;;;;;10.98;100.00;100914.55;105671;1254;60383;-55
2023/04/09 00:04:08;;;;;;;10.80;5.20;;;;;;;10.95;100.00;100920.21;105622;1250;60896;-55
2023/04/09 00:06:37;;;;;;;9.10;4.90;;;;;;;10.91;100.00;100921.88;105586;1251;74672;-56
2023/04/09 00:09:06;;;;;;;11.30;5.10;;;;;;;10.88;100.00;100925.78;108168;1253;68742;-54
2023/04/09 00:11:35;;;;;;;9.90;4.90;;;;;;;10.82;100.00;100922.37;105706;1250;74037;-59
2023/04/09 00:14:04;;;;;;;13.70;5.40;;;;;;;10.79;100.00;100928.52;105595;1250;60217;-56
2023/04/09 00:16:33;;;;;;;9.70;5.40;;;;;;;10.74;100.00;100926.77;105787;1254;60845;-58
2023/04/09 00:19:02;;;;;;;9.80;4.80;;;;;;;10.71;100.00;100931.15;105321;1251;74402;-54
2023/04/09 00:21:31;;;;;;;11.50;5.10;;;;;;;10.69;100.00;100931.35;105748;1253;67224;-56
2023/04/09 00:24:00;;;;;;;11.50;6.00;;;;;;;10.66;100.00;100932.63;105629;1251;73107;-54
2023/04/09 00:26:28;;;;;;;10.70;5.80;;;;;;;10.65;100.00;100927.94;105517;1250;62246;-57
2023/04/09 00:28:59;;;;;;;12.50;6.10;;;;;;;10.63;100.00;100928.09;105434;1252;61078;-54
2023/04/09 00:31:28;;;;;;;11.60;6.20;;;;;;;10.61;100.00;100928.21;105665;1250;74455;-58
2023/04/09 00:33:57;;;;;;;14.50;5.60;;;;;;;10.55;100.00;100933.17;105627;1254;68945;-55
2023/04/09 00:36:26;;;;;;;8.70;5.50;;;;;;;10.46;100.00;100936.03;105859;1254;73986;-55
2023/04/09 00:38:54;;;;;;;13.10;7.10;;;;;;;10.41;100.00;100939.77;105649;1254;61368;-55
2023/04/09 00:41:23;;;;;;;11.20;6.20;;;;;;;10.38;100.00;100942.09;105645;1254;61853;-58
2023/04/09 00:43:54;;;;;;;14.40;6.30;;;;;;;10.39;100.00;100946.02;105706;1254;74880;-55
2023/04/09 00:46:25;;;;;;;10.40;5.80;;;;;;;10.39;100.00;100946.95;105664;1250;68581;-56
2023/04/09 00:48:54;;;;;;;14.10;7.40;;;;;;;10.39;100.00;100950.70;105694;1254;73630;-56
2023/04/09 00:51:23;;;;;;;11.50;7.10;;;;;;;10.39;100.00;100957.80;105757;1251;60616;-57
2023/04/09 00:53:52;;;;;;;10.40;7.30;;;;;;;10.37;100.00;100964.45;105717;1251;61955;-54
2023/04/09 00:56:21;;;;;;;13.50;7.50;;;;;;;10.32;100.00;100971.66;105858;1250;74908;-57
2023/04/09 00:58:53;;;;;;;14.50;7.00;;;;;;;10.12;100.00;100975.16;105576;1253;68849;-55
2023/04/09 01:01:22;;;;;;;13.20;6.90;;;;;;;9.82;100.00;100982.13;105466;1253;74547;-56
2023/04/09 01:03:52;;;;;;;13.70;7.20;;;;;;;9.55;100.00;100982.64;105482;1253;62825;-55
2023/04/09 01:06:25;;;;;;;11.60;7.50;;;;;;;9.34;100.00;100985.83;105701;1251;60565;-58
2023/04/09 01:09:22;;;;;;;12.50;7.50;;;;;;;9.17;100.00;100995.15;105516;1251;72305;-59
2023/04/09 01:12:01;;;;;;;17.80;8.80;;;;;;;9.01;100.00;101001.54;105685;1252;67076;-57
2023/04/09 01:14:38;;;;;;;12.50;7.80;;;;;;;8.90;100.00;101005.52;105631;1257;73200;-55
2023/04/09 01:17:14;;;;;;;14.10;7.40;;;;;;;8.82;100.00;101012.61;105296;1250;63524;-56
2023/04/09 01:19:50;;;;;;;12.10;8.00;;;;;;;8.77;100.00;101012.39;105344;1251;61379;-55
2023/04/09 01:22:43;;;;;;;16.60;7.70;;;;;;;8.73;100.00;101014.86;105451;1250;74413;-56
2023/04/09 01:25:39;;;;;;;17.00;7.40;;;;;;;8.68;100.00;101023.48;105537;1254;68004;-56
2023/04/09 01:28:40;;;;;;;14.20;7.10;;;;;;;8.62;100.00;101019.39;105699;1250;74110;-55
2023/04/09 01:31:13;;;;;;;15.00;7.80;;;;;;;8.56;100.00;101027.70;105787;1256;62357;-56
2023/04/09 01:33:42;;;;;;;14.00;6.70;;;;;;;8.49;100.00;101024.88;105418;1253;60814;-55
2023/04/09 01:36:11;;;;;;;14.30;6.90;;;;;;;8.43;100.00;101029.48;105484;1252;73282;-59
2023/04/09 01:38:41;;;;;;;9.30;6.70;;;;;;;8.37;100.00;101030.52;105491;1255;67348;-55
2023/04/09 01:41:13;;;;;;;9.80;6.40;;;;;;;8.31;100.00;101034.54;105503;1250;74139;-56
2023/04/09 01:43:42;;;;;;;13.10;7.30;;;;;;;8.25;100.00;101034.46;105383;1257;62329;-60
2023/04/09 01:46:11;;;;;;;13.50;7.70;;;;;;;8.19;100.00;101036.41;105617;1253;61091;-60
2023/04/09 01:48:40;;;;;;;13.30;6.60;;;;;;;8.15;100.00;101040.95;105481;1250;75457;-56
2023/04/09 01:51:12;;;;;;;11.70;8.00;;;;;;;8.12;100.00;101039.08;105630;1250;68588;-55
2023/04/09 01:53:42;;;;;;;11.50;7.30;;;;;;;8.07;100.00;101045.16;105448;1250;73088;-56
2023/04/09 01:56:13;;;;;;;9.80;7.20;;;;;;;8.05;100.00;101046.05;105484;1257;62643;-56
2023/04/09 01:58:41;;;;;;;14.00;8.10;;;;;;;8.03;100.00;101046.05;105636;1254;60402;-55
2023/04/09 02:01:16;;;;;;;16.00;8.20;;;;;;;8.01;100.00;101045.52;105538;1250;74279;-57
2023/04/09 02:03:53;;;;;;;11.10;7.30;;;;;;;7.99;100.00;101044.70;105442;1257;66787;-61
2023/04/09 02:07:01;;;;;;;14.20;7.60;;;;;;;7.96;100.00;101049.83;105369;1250;74971;-56
2023/04/09 02:09:31;;;;;;;12.30;7.80;;;;;;;7.94;100.00;101052.47;105343;1250;63690;-57
2023/04/09 02:12:02;;;;;;;12.90;7.90;;;;;;;7.93;100.00;101054.95;105814;1256;60747;-56
2023/04/09 02:14:33;;;;;;;11.90;7.80;;;;;;;7.93;100.00;101060.08;105863;1257;75073;-56
2023/04/09 02:17:03;;;;;;;12.70;7.40;;;;;;;7.92;100.00;101058.41;105542;1250;68433;-62
2023/04/09 02:19:45;;;;;;;10.30;6.30;;;;;;;7.92;100.00;101057.90;105511;1259;73186;-56
2023/04/09 02:22:15;;;;;;;12.40;7.70;;;;;;;7.91;100.00;101057.95;105312;1258;62609;-56
2023/04/09 02:24:45;;;;;;;10.00;7.50;;;;;;;7.90;100.00;101052.71;105491;1250;60486;-59
2023/04/09 02:27:14;;;;;;;13.20;8.00;;;;;;;7.90;100.00;101056.15;105535;1253;74874;-57
2023/04/09 02:29:42;;;;;;;10.60;6.80;;;;;;;7.92;100.00;101058.06;105545;1250;67936;-56
2023/04/09 02:32:12;;;;;;;11.90;6.80;;;;;;;7.93;100.00;101060.86;105588;1254;73166;-56
2023/04/09 02:34:42;;;;;;;11.60;6.80;;;;;;;7.96;100.00;101060.77;105578;1257;64568;-61
2023/04/09 02:37:11;;;;;;;14.80;6.80;;;;;;;7.98;100.00;101063.20;105425;1250;60557;-56
2023/04/09 02:39:40;;;;;;;11.80;6.50;;;;;;;8.01;100.00;101065.00;105690;1250;75323;-56
2023/04/09 02:42:09;;;;;;;12.30;6.60;;;;;;;8.04;100.00;101067.10;106256;1253;67603;-56
2023/04/09 02:44:39;;;;;;;11.60;6.80;;;;;;;8.07;100.00;101068.73;105653;1251;74923;-56
2023/04/09 02:47:08;;;;;;;10.90;6.50;;;;;;;8.09;100.00;101068.73;105824;1251;63526;-56
2023/04/09 02:49:38;;;;;;;11.00;7.10;;;;;;;8.08;100.00;101068.98;105522;1250;61413;-55
2023/04/09 02:52:09;;;;;;;9.80;6.90;;;;;;;8.06;100.00;101072.45;105667;1254;75165;-56
2023/04/09 02:54:37;;;;;;;9.50;6.50;;;;;;;8.04;100.00;101072.30;105449;1250;68943;-56
2023/04/09 02:57:06;;;;;;;12.90;7.70;;;;;;;8.02;100.00;101071.11;105650;1254;74209;-55
2023/04/09 02:59:35;;;;;;;13.80;7.20;;;;;;;8.01;100.00;101074.34;105729;1250;63520;-55
2023/04/09 03:02:03;;;;;;;14.10;7.00;;;;;;;7.98;100.00;101075.63;106088;1251;61946;-57
2023/04/09 03:04:32;;;;;;;13.50;6.70;;;;;;;7.96;100.00;101072.08;105538;1255;76199;-57
2023/04/09 03:07:01;;;;;;;14.20;6.30;;;;;;;7.93;100.00;101076.09;105714;1251;68487;-57
2023/04/09 03:09:36;;;;;;;14.50;7.70;;;;;;;7.90;100.00;101074.88;105573;1250;74593;-57
2023/04/09 03:12:05;;;;;;;11.70;6.20;;;;;;;7.86;100.00;101073.31;105841;1251;62457;-59
2023/04/09 03:14:34;;;;;;;12.30;7.00;;;;;;;7.80;100.00;101073.34;105570;1252;60448;-57
2023/04/09 03:17:02;;;;;;;11.10;7.10;;;;;;;7.75;100.00;101074.22;105817;1252;75280;-57
2023/04/09 03:19:31;;;;;;;12.60;7.10;;;;;;;7.70;100.00;101073.80;105735;1254;68529;-56
2023/04/09 03:22:00;;;;;;;9.40;6.60;;;;;;;7.66;100.00;101074.01;105903;1253;74060;-59
2023/04/09 03:24:32;;;;;;;11.90;7.60;;;;;;;7.63;100.00;101072.94;105657;1256;63323;-57
2023/04/09 03:27:03;;;;;;;;;;;;;;;7.61;100.00;101072.58;105705;1250;60473;-61
2023/04/09 03:29:33;;;;;;;13.10;7.10;;;;;;;7.60;100.00;101073.22;105604;1256;75007;-56
2023/04/09 03:32:02;;;;;;;11.30;6.90;;;;;;;7.60;100.00;101075.07;105098;1257;68118;-56
2023/04/09 03:34:31;;;;;;;10.80;7.30;;;;;;;7.61;100.00;101082.63;105664;1256;72909;-56
2023/04/09 03:36:59;;;;;;;11.90;6.80;;;;;;;7.63;100.00;101082.08;105739;1252;62420;-57
2023/04/09 03:39:32;;;;;;;10.10;7.10;;;;;;;7.67;100.00;101084.98;106031;1253;60759;-60
2023/04/09 03:42:06;;;;;;;9.80;5.90;;;;;;;7.70;100.00;101086.26;105431;1253;74075;-54
2023/04/09 03:44:43;;;;;;;11.10;6.10;;;;;;;7.74;100.00;101086.59;105161;1254;68607;-53
2023/04/09 03:47:15;;;;;;;13.60;6.30;;;;;;;7.78;100.00;101087.42;105385;1253;73206;-61
2023/04/09 03:49:45;;;;;;;12.10;6.50;;;;;;;7.82;100.00;101085.65;105658;1257;62592;-60
2023/04/09 03:52:23;;;;;;;9.20;6.30;;;;;;;7.86;100.00;101089.82;105316;1250;60882;-56
2023/04/09 03:54:58;;;;;;;8.80;6.10;;;;;;;7.88;100.00;101089.80;105313;1257;75315;-60
2023/04/09 03:57:27;;;;;;;10.20;6.30;;;;;;;7.89;100.00;101091.58;105422;1253;67695;-56
2023/04/09 03:59:55;;;;;;;13.40;7.10;;;;;;;7.90;100.00;101094.86;105484;1253;73955;-56
2023/04/09 04:02:29;;;;;;;10.60;6.90;;;;;;;7.92;100.00;101095.26;105608;1259;62319;-56
2023/04/09 04:05:01;;;;;;;9.80;7.10;;;;;;;7.94;100.00;101097.14;105367;1253;62207;-57
2023/04/09 04:07:33;;;;;;;11.40;6.90;;;;;;;7.97;100.00;101097.93;105542;1252;75026;-60
2023/04/09 04:10:08;;;;;;;8.40;6.10;;;;;;;7.97;100.00;101099.78;105354;1255;67763;-56
2023/04/09 04:12:43;;;;;;;10.40;6.20;;;;;;;7.98;100.00;101103.79;105475;1259;74124;-57
2023/04/09 04:15:19;;;;;;;10.50;6.90;;;;;;;8.00;100.00;101102.12;105829;1256;63590;-55
2023/04/09 04:17:52;;;;;;;10.80;7.00;;;;;;;8.01;100.00;101105.98;105487;1257;61941;-55
2023/04/09 04:20:40;;;;;;;12.30;6.70;;;;;;;8.02;100.00;101106.93;105705;1251;74303;-60
2023/04/09 04:23:33;;;;;;;10.00;5.70;;;;;;;8.04;100.00;101107.45;105904;1250;68511;-56
2023/04/09 04:26:16;;;;;;;9.80;6.10;;;;;;;8.06;100.00;101103.27;105258;1257;74193;-56
2023/04/09 04:28:45;;;;;;;8.60;6.30;;;;;;;8.09;100.00;101104.35;105572;1254;63393;-56
2023/04/09 04:31:22;;;;;;;8.60;6.00;;;;;;;8.13;100.00;101107.61;105432;1250;61816;-59
2023/04/09 04:33:53;;;;;;;7.30;6.10;;;;;;;8.17;100.00;101106.55;105717;1253;74583;-59
2023/04/09 04:36:22;;;;;;;10.50;6.20;;;;;;;8.22;100.00;101108.84;105651;1256;67600;-55
2023/04/09 04:38:52;;;;;;;9.90;6.10;;;;;;;8.28;100.00;101109.16;105366;1256;73475;-55
2023/04/09 04:41:34;;;;;;;10.00;6.30;;;;;;;8.33;100.00;101109.53;105539;1253;63285;-57
2023/04/09 04:44:13;;;;;;;9.80;6.20;;;;;;;8.35;100.00;101113.63;105482;1252;61769;-55
2023/04/09 04:46:43;;;;;;;11.30;5.70;;;;;;;8.38;100.00;101112.25;105463;1253;74236;-55
2023/04/09 04:49:11;;;;;;;7.80;5.30;;;;;;;8.39;100.00;101114.30;105560;1254;67387;-57
2023/04/09 04:51:48;;;;;;;8.30;6.20;;;;;;;8.41;100.00;101114.84;105623;1250;74342;-55
2023/04/09 04:54:16;;;;;;;9.60;6.70;;;;;;;8.42;100.00;101114.80;105547;1250;62857;-54
2023/04/09 04:56:55;;;;;;;8.50;6.40;;;;;;;8.43;100.00;101115.31;105274;1250;61668;-57
2023/04/09 04:59:42;;;;;;;9.10;6.10;;;;;;;8.46;100.00;101118.66;105469;1250;75847;-55
2023/04/09 05:02:12;;;;;;;9.10;6.50;;;;;;;8.50;100.00;101117.73;105405;1258;67661;-59
2023/04/09 05:05:13;;;;;;;11.60;6.50;;;;;;;8.57;100.00;101117.67;105842;1256;73987;-56
2023/04/09 05:07:51;;;;;;;9.70;5.60;;;;;;;8.66;100.00;101114.85;105196;1253;62879;-60
2023/04/09 05:10:20;;;;;;;7.20;5.10;;;;;;;8.78;100.00;101116.05;105638;1256;60448;-57
2023/04/09 05:12:49;;;;;;;8.50;5.70;;;;;;;8.95;100.00;101117.35;105514;1253;74237;-55
2023/04/09 05:15:27;;;;;;;9.10;5.70;;;;;;;9.10;100.00;101110.05;105369;1254;68419;-56
2023/04/09 05:17:57;;;;;;;8.70;6.00;;;;;;;9.18;100.00;101108.88;105642;1255;72976;-59
2023/04/09 05:20:26;;;;;;;10.30;5.30;;;;;;;9.27;100.00;101112.11;105572;1259;63402;-56
2023/04/09 05:23:11;;;;;;;9.40;6.10;;;;;;;9.31;100.00;101110.48;105676;1250;60952;-59
2023/04/09 05:25:43;;;;;;;8.50;5.80;;;;;;;9.36;100.00;101111.02;105435;1250;75347;-60
2023/04/09 05:28:18;;;;;;;9.30;5.10;;;;;;;9.38;100.00;101112.95;105357;1251;68606;-55
2023/04/09 05:30:48;;;;;;;14.50;5.90;;;;;;;9.36;100.00;101109.67;105472;1259;74197;-56
2023/04/09 05:33:20;;;;;;;9.80;5.70;;;;;;;9.37;100.00;101112.89;105916;1256;62229;-56
2023/04/09 05:35:49;;;;;;;9.10;6.20;;;;;;;9.40;100.00;101115.14;105788;1251;61818;-58
2023/04/09 05:38:19;;;;;;;7.90;5.00;;;;;;;9.47;100.00;101116.36;105764;1251;75357;-57
2023/04/09 05:40:50;;;;;;;8.40;5.80;;;;;;;9.55;100.00;101116.44;105648;1257;68081;-58
2023/04/09 05:43:19;;;;;;;8.70;5.70;;;;;;;9.64;100.00;101114.66;105693;1253;73364;-57
2023/04/09 05:45:50;;;;;;;8.80;5.50;;;;;;;9.77;100.00;101118.88;105692;1253;64122;-58
2023/04/09 05:48:21;;;;;;;9.20;6.20;;;;;;;9.90;100.00;101118.86;105795;1250;59735;-57
2023/04/09 05:50:51;;;;;;;9.70;5.80;;;;;;;10.05;100.00;101117.52;105767;1250;74288;-55
2023/04/09 05:53:25;;;;;;;8.10;5.30;;;;;;;10.24;100.00;101118.39;105555;1250;68607;-61
2023/04/09 05:55:53;;;;;;;9.80;5.40;;;;;;;10.39;100.00;101112.35;105888;1250;73454;-57
2023/04/09 05:58:24;;;;;;;7.50;5.00;;;;;;;10.56;100.00;101108.23;105863;1250;62608;-56
2023/04/09 06:00:56;;;;;;;8.40;5.10;;;;;;;10.73;100.00;101109.83;105733;1256;60620;-56
2023/04/09 06:03:27;;;;;;;7.10;4.90;;;;;;;10.85;100.00;101106.70;105999;1254;75371;-56
2023/04/09 06:05:56;;;;;;;8.60;5.10;;;;;;;11.01;100.00;101109.08;105934;1250;68688;-57
2023/04/09 06:08:26;;;;;;;9.50;4.80;;;;;;;11.18;100.00;101106.58;105548;1256;73138;-56
2023/04/09 06:10:55;;;;;;;6.80;4.50;;;;;;;11.31;100.00;101101.77;105452;1253;61515;-56
2023/04/09 06:13:24;;;;;;;9.10;5.30;;;;;;;11.36;100.00;101098.46;105495;1256;61573;-56
2023/04/09 06:15:52;;;;;;;7.20;5.10;;;;;;;11.40;100.00;101100.09;105597;1257;74798;-57
2023/04/09 06:18:23;;;;;;;6.90;4.60;;;;;;;11.47;100.00;101097.09;105633;1251;68565;-57
2023/04/09 06:21:03;;;;;;;6.90;4.30;;;;;;;11.51;100.00;101099.66;105956;1251;72566;-59
2023/04/09 06:23:38;;;;;;;7.20;5.00;;;;;;;11.57;100.00;101102.09;105494;1251;61118;-56
2023/04/09 06:26:08;;;;;;;8.90;5.40;;;;;;;11.66;100.00;101106.51;105634;1255;60421;-56
2023/04/09 06:28:36;;;;;;;9.00;4.70;;;;;;;11.80;100.00;101101.78;105709;1253;75139;-57
2023/04/09 06:31:07;;;;;;;8.10;5.70;;;;;;;12.08;100.00;101100.25;105619;1254;67575;-57
2023/04/09 06:33:36;;;;;;;6.40;5.10;;;;;;;12.54;100.00;101097.98;105679;1251;74259;-57
2023/04/09 06:36:05;;;;;;;6.20;4.20;;;;;;;13.13;100.00;101101.31;105655;1250;63514;-57
2023/04/09 06:38:36;;;;;;;6.80;4.40;;;;;;;13.65;100.00;101100.75;105683;1250;61934;-58
2023/04/09 06:41:07;;;;;;;6.60;4.80;;;;;;;14.00;100.00;101102.39;105637;1250;75674;-58
2023/04/09 06:43:42;;;;;;;6.90;4.30;;;;;;;14.47;100.00;101106.69;105567;1250;67888;-57
2023/04/09 06:46:12;;;;;;;5.90;4.20;;;;;;;14.80;100.00;101096.80;105611;1250;74112;-57
2023/04/09 06:48:41;;;;;;;5.80;3.80;;;;;;;15.12;100.00;101095.86;105450;1250;62266;-60
2023/04/09 06:51:10;;;;;;;7.80;4.90;;;;;;;15.46;100.00;101096.31;105614;1250;61337;-57
2023/04/09 06:53:39;;;;;;;5.90;3.30;;;;;;;15.72;100.00;101093.50;105721;1255;75186;-58
2023/04/09 06:56:09;;;;;;;6.20;3.80;;;;;;;15.77;100.00;101097.89;105773;1250;69033;-61
2023/04/09 06:58:38;;;;;;;5.70;3.90;;;;;;;15.75;100.00;101099.82;105747;1250;74107;-60
2023/04/09 07:01:07;;;;;;;7.10;3.70;;;;;;;15.69;100.00;101101.62;105642;1250;61814;-57
2023/04/09 07:03:41;;;;;;;6.80;4.10;;;;;;;15.57;100.00;101103.11;105538;1250;61561;-57
2023/04/09 07:06:10;;;;;;;7.80;3.80;;;;;;;15.36;100.00;101107.56;105667;1250;74359;-57
2023/04/09 07:08:38;;;;;;;6.00;4.00;;;;;;;15.14;100.00;101113.29;105605;1254;68835;-57
2023/04/09 07:11:12;;;;;;;6.40;4.20;;;;;;;14.97;100.00;101108.41;105571;1251;74000;-58
2023/04/09 07:13:43;;;;;;;6.60;4.30;;;;;;;14.85;100.00;101117.44;105876;1250;60612;-56
2023/04/09 07:16:12;;;;;;;6.70;3.80;;;;;;;14.64;100.00;101121.23;105892;1256;60984;-57
2023/04/09 07:18:42;;;;;;;7.80;3.70;;;;;;;14.40;100.00;101113.17;105868;1250;74657;-57
2023/04/09 07:21:12;;;;;;;6.00;3.90;;;;;;;14.25;100.00;101114.88;105472;1256;67336;-57
2023/04/09 07:23:41;;;;;;;9.60;4.30;;;;;;;14.23;100.00;101117.56;105860;1256;73199;-56
2023/04/09 07:26:10;;;;;;;7.40;4.60;;;;;;;14.31;100.00;101116.23;105696;1251;60675;-57
2023/04/09 07:28:39;;;;;;;5.70;3.80;;;;;;;14.48;100.00;101110.96;105221;1253;60734;-58
2023/04/09 07:31:08;;;;;;;5.30;3.90;;;;;;;14.67;100.00;101112.77;105655;1250;75521;-58
2023/04/09 07:33:56;;;;;;;6.90;4.00;;;;;;;14.79;100.00;101109.16;105511;1256;68654;-56
2023/04/09 07:36:26;;;;;;;5.60;4.10;;;;;;;14.85;100.00;101106.34;105517;1251;72358;-55
2023/04/09 07:38:55;;;;;;;5.80;3.80;;;;;;;14.94;100.00;101103.02;105564;1256;60763;-56
2023/04/09 07:41:25;;;;;;;10.70;4.50;;;;;;;15.09;100.00;101102.11;105586;1254;60574;-58
2023/04/09 07:43:54;;;;;;;6.90;3.50;;;;;;;15.28;100.00;101102.23;105759;1251;73499;-58
2023/04/09 07:46:27;;;;;;;6.70;3.70;;;;;;;15.53;100.00;101094.27;105326;1253;68266;-58
2023/04/09 07:48:56;;;;;;;6.30;4.00;;;;;;;15.75;100.00;101097.80;105498;1253;73614;-55
2023/04/09 07:51:25;;;;;;;5.40;3.70;;;;;;;15.87;100.00;101096.48;105752;1255;61311;-60
2023/04/09 07:54:00;;;;;;;9.70;4.30;;;;;;;16.10;100.00;101095.08;105254;1253;61809;-56
2023/04/09 07:56:31;;;;;;;5.60;3.50;;;;;;;16.42;99.50;101092.02;105419;1254;75384;-56
2023/04/09 07:58:59;;;;;;;6.10;3.60;;;;;;;16.87;84.85;101094.84;105577;1253;68619;-56
2023/04/09 08:01:28;;;;;;;6.30;3.00;;;;;;;17.26;74.77;101092.65;105538;1257;73118;-57
2023/04/09 08:03:57;;;;;;;6.50;3.10;;;;;;;17.61;66.16;101095.30;106113;1255;60909;-57
2023/04/09 08:06:26;;;;;;;6.90;3.30;;;;;;;17.82;62.06;101089.07;105613;1255;61180;-57
2023/04/09 08:08:58;;;;;;;5.40;3.10;;;;;;;18.05;55.57;101091.88;105321;1259;75487;-56
2023/04/09 08:11:26;;;;;;;5.00;3.00;;;;;;;17.99;50.72;101092.55;105521;1255;68982;-59
2023/04/09 08:13:56;;;;;;;4.80;3.10;;;;;;;17.77;51.03;101093.13;105432;1255;73366;-58
2023/04/09 08:16:26;;;;;;;7.60;3.70;;;;;;;17.68;51.16;101095.83;105413;1256;60620;-58
2023/04/09 08:18:56;;;;;;;6.50;3.00;;;;;;;17.67;49.55;101102.83;105470;1254;62063;-57
2023/04/09 08:21:25;;;;;;;5.60;3.20;;;;;;;17.55;47.99;101095.08;105425;1256;75728;-57
2023/04/09 08:24:00;;;;;;;5.80;2.70;;;;;;;17.50;48.86;101092.48;105554;1254;67569;-58
2023/04/09 08:26:29;;;;;;;4.70;2.50;;;;;;;17.60;48.89;101085.00;105579;1251;74247;-55
2023/04/09 08:28:58;;;;;;;7.00;2.90;;;;;;;17.73;47.90;101088.11;105576;1256;60974;-57
2023/04/09 08:31:26;;;;;;;4.60;2.90;;;;;;;17.81;48.92;101082.59;105561;1250;61731;-58
2023/04/09 08:33:56;;;;;;;4.50;3.00;;;;;;;17.94;46.87;101084.39;105816;1254;74801;-56
2023/04/09 08:36:25;;;;;;;3.80;2.50;;;;;;;17.95;46.48;101085.14;105551;1253;68669;-55
2023/04/09 08:38:55;;;;;;;11.20;3.50;;;;;;;17.79;45.72;101086.48;105486;1254;74154;-56
2023/04/09 08:41:24;;;;;;;7.10;3.30;;;;;;;17.60;47.81;101079.88;106114;1254;62680;-56
2023/04/09 08:43:53;;;;;;;7.90;3.90;;;;;;;17.54;48.52;101076.02;105839;1255;61850;-56
2023/04/09 08:46:26;;;;;;;9.50;3.40;;;;;;;17.57;51.58;101077.22;105637;1253;74575;-56
2023/04/09 08:48:55;;;;;;;6.40;3.40;;;;;;;17.68;53.47;101078.27;106015;1256;68527;-59
2023/04/09 08:51:24;;;;;;;4.50;2.70;;;;;;;17.89;50.77;101077.56;105883;1254;73267;-57
2023/04/09 08:53:57;;;;;;;7.70;3.10;;;;;;;18.10;49.40;101078.04;105768;1254;61429;-56
2023/04/09 08:56:27;;;;;;;6.20;2.80;;;;;;;18.34;47.92;101074.52;105694;1255;61748;-56
2023/04/09 08:58:56;;;;;;;7.20;3.50;;;;;;;18.56;47.72;101072.44;105803;1253;75633;-58
2023/04/09 09:01:25;;;;;;;6.50;2.60;;;;;;;18.78;46.12;101070.88;105699;1256;68645;-57
2023/04/09 09:04:04;;;;;;;6.40;3.80;;;;;;;18.82;43.30;101076.92;105931;1250;74167;-56
2023/04/09 09:06:37;;;;;;;9.10;3.30;;;;;;;18.59;42.34;101075.21;106180;1250;62089;-59
2023/04/09 09:09:06;;;;;;;4.10;2.90;;;;;;;18.34;42.63;101073.05;105897;1256;60431;-59
2023/04/09 09:11:36;;;;;;;6.40;2.90;;;;;;;18.16;43.43;101070.66;105871;1254;75370;-58
2023/04/09 09:14:09;;;;;;;5.40;3.30;;;;;;;18.05;43.30;101071.17;105789;1256;68405;-57
2023/04/09 09:16:57;;;;;;;6.10;3.20;;;;;;;18.06;43.26;101075.39;105207;1256;465189;-55
2023/04/09 09:19:26;;;;;;;6.30;3.30;;;;;;;18.03;42.65;101064.29;105951;1255;61352;-57
2023/04/09 09:22:05;;;;;;;5.90;2.60;;;;;;;18.04;42.04;101064.11;105704;1256;60858;-58
2023/04/09 09:24:34;;;;;;;9.80;2.50;;;;;;;18.08;41.65;101066.01;105962;1254;73784;-56
2023/04/09 09:27:03;;;;;;;4.70;2.50;;;;;;;17.92;41.45;101068.00;105794;1259;68577;-56
2023/04/09 09:29:31;;;;;;;4.70;3.20;;;;;;;17.70;42.68;101059.08;106008;1254;74574;-56
2023/04/09 09:32:00;;;;;;;4.70;3.40;;;;;;;17.71;45.43;101060.45;106381;1257;60921;-56
2023/04/09 09:34:29;;;;;;;4.70;2.80;;;;;;;17.96;45.73;101054.83;106021;1254;60825;-57
2023/04/09 09:36:58;;;;;;;5.20;2.80;;;;;;;18.15;43.78;101063.73;105715;1255;75094;-57
2023/04/09 09:39:28;;;;;;;4.50;2.30;;;;;;;18.06;41.76;101058.52;106413;1256;68708;-56
2023/04/09 09:42:07;;;;;;;7.80;2.80;;;;;;;17.89;42.27;101064.05;105444;1258;73391;-56
2023/04/09 09:44:35;;;;;;;5.70;2.40;;;;;;;17.84;42.87;101065.42;105581;1251;60443;-56
2023/04/09 09:47:04;;;;;;;4.50;2.90;;;;;;;17.76;42.50;101062.67;105559;1251;61834;-58
2023/04/09 09:49:33;;;;;;;7.50;3.40;;;;;;;17.68;43.46;101057.02;105786;1251;74076;-58
2023/04/09 09:52:02;;;;;;;6.60;2.50;;;;;;;17.72;44.12;101056.47;105619;1256;68393;-56
2023/04/09 09:54:37;;;;;;;3.70;2.30;;;;;;;17.78;43.41;101055.26;105572;1253;75239;-56
2023/04/09 09:57:07;;;;;;;4.30;2.60;;;;;;;17.87;43.74;101054.92;105619;1255;60909;-57
2023/04/09 09:59:45;;;;;;;5.10;2.20;;;;;;;17.94;43.75;101062.71;105470;1256;61853;-56
2023/04/09 10:02:22;;;;;;;3.60;2.30;;;;;;;18.04;42.51;101052.30;105714;1256;75330;-59
2023/04/09 10:04:54;;;;;;;5.20;2.90;;;;;;;18.09;42.93;101056.70;105573;1256;68675;-56
2023/04/09 10:07:24;;;;;;;4.80;2.70;;;;;;;18.16;43.09;101053.41;105504;1256;73404;-58
2023/04/09 10:09:54;;;;;;;6.30;2.70;;;;;;;18.25;42.48;101054.52;105884;1257;60887;-56
2023/04/09 10:12:23;;;;;;;5.20;3.00;;;;;;;18.29;41.64;101046.38;105524;1259;62214;-58
2023/04/09 10:15:03;;;;;;;5.90;2.50;;;;;;;18.33;40.77;101049.11;105531;1256;75325;-57
2023/04/09 10:17:32;;;;;;;6.40;2.90;;;;;;;18.23;40.55;101053.48;105352;1256;68558;-55
2023/04/09 10:20:06;;;;;;;6.80;2.80;;;;;;;18.14;40.93;101047.05;105782;1256;74466;-60
2023/04/09 10:22:35;;;;;;;5.20;2.60;;;;;;;18.08;41.96;101047.34;105548;1259;61842;-54
2023/04/09 10:25:05;;;;;;;4.10;2.30;;;;;;;18.12;42.37;101039.71;105786;1257;62297;-56
2023/04/09 10:27:33;;;;;;;4.50;2.50;;;;;;;18.17;42.21;101038.77;105716;1251;75643;-56
2023/04/09 10:30:04;;;;;;;5.10;2.90;;;;;;;18.23;42.94;101042.59;105834;1255;67562;-55
2023/04/09 10:32:35;;;;;;;4.20;2.70;;;;;;;18.33;43.36;101039.16;105436;1256;74225;-55
2023/04/09 10:35:24;;;;;;;4.20;2.10;;;;;;;18.32;41.85;101039.25;105846;1250;64095;-55
2023/04/09 10:37:55;;;;;;;;;;;;;;;18.34;42.19;101037.16;105608;1251;62264;-55
2023/04/09 10:40:29;;;;;;;6.90;3.30;;;;;;;18.41;40.60;101032.35;105399;1257;75630;-54
2023/04/09 10:42:58;;;;;;;5.40;2.80;;;;;;;18.40;41.27;101031.02;105624;1255;67404;-55
2023/04/09 10:45:38;;;;;;;6.60;2.40;;;;;;;18.41;41.37;101032.10;105554;1251;73823;-55
2023/04/09 10:48:13;;;;;;;5.00;3.10;;;;;;;18.48;41.93;101030.14;105436;1251;60536;-55
2023/04/09 10:50:45;;;;;;;5.30;3.10;;;;;;;18.63;42.69;101022.17;105405;1254;61875;-55
2023/04/09 10:53:25;;;;;;;6.90;2.90;;;;;;;18.77;41.02;101029.02;105364;1257;75465;-58
2023/04/09 10:56:00;;;;;;;7.50;3.00;;;;;;;18.68;40.56;101023.50;105538;1256;68491;-56
2023/04/09 10:58:36;;;;;;;6.20;2.80;;;;;;;18.70;40.50;101022.08;105367;1252;73407;-56
2023/04/09 11:01:07;;;;;;;6.30;2.90;;;;;;;18.82;40.67;101020.11;105883;1256;60871;-56
2023/04/09 11:03:43;;;;;;;4.80;2.70;;;;;;;18.81;39.81;101018.77;105501;1256;60800;-58
2023/04/09 11:06:16;;;;;;;7.10;3.00;;;;;;;18.76;39.48;101017.64;105473;1257;74214;-56
2023/04/09 11:08:47;;;;;;;3.80;2.30;;;;;;;18.83;40.00;101011.27;105636;1254;67797;-55
2023/04/09 11:11:16;;;;;;;5.90;3.00;;;;;;;18.85;39.48;101022.59;106011;1264;73571;-57
2023/04/09 11:13:44;;;;;;;6.00;3.10;;;;;;;18.84;39.44;101022.98;107273;1257;61563;-55
2023/04/09 11:16:16;;;;;;;4.70;2.80;;;;;;;18.88;39.62;101019.36;106059;1257;61077;-56
2023/04/09 11:19:01;;;;;;;4.90;2.30;;;;;;;18.94;39.11;101016.57;105905;1251;75368;-58
2023/04/09 11:21:31;;;;;;;4.80;2.70;;;;;;;18.86;38.65;101021.98;105885;1251;67605;-59
2023/04/09 11:24:02;;;;;;;4.70;2.30;;;;;;;18.74;39.31;101019.94;106092;1256;74284;-58
2023/04/09 11:26:35;;;;;;;6.10;2.90;;;;;;;18.67;39.79;101014.32;105804;1259;61142;-57
2023/04/09 11:29:07;;;;;;;6.10;3.80;;;;;;;18.79;39.02;101010.27;105882;1251;61716;-55
2023/04/09 11:31:45;;;;;;;6.70;4.50;;;;;;;18.88;38.71;101010.41;105758;1255;74277;-57
2023/04/09 11:34:33;;;;;;;4.20;2.60;;;;;;;18.91;38.39;101003.70;105795;1253;68634;-60